Relevés horaires Florennes (Belgique)


Relevés horaires à Florennes - Dimanche 26 Avr. 2026
Heure UTC1 Température [°C] Vent [km/h] Hum. [%] Pres.4 [hPa] Visi. [Km] Nébu. [octa] Préc.5 [mm] Cond.
2m. Res. Ros. Dir.2 Vit. Moy. Raf.3
23:00 8.3 8.3 1.1 NNE 3.7 -- 5.6 60 1024(0.0/3h) >70 -- -- --
22:00 10.1 10.1 1.1 E 3.7 -- 5.6 54 1023.5(0.1/3h) >70 -- -- --
21:00 10.8 10.8 2.1 NNO 1.9 -- 7.4 55 1023.7(0.6/3h) >70 -- -- --
20:00 10.8 10.8 2.7 NNO 1.9 -- 3.7 57 1023.7(0.5/3h) >70 -- -- --
19:00 12.2 12.2 2.9 NNO 1.9 -- 7.4 53 1023.2(0.0/3h) >70 -- -- --
18:00 13.7 13.7 3.2 NNE 5.6 -- 13.0 49 1022.6(-0.4/3h) >70 -- -- --
17:00 15.6 15.6 3.4 NE 7.4 -- 11.1 44 1022.5(-0.7/3h) >70 -- -- --
16:00 16.0 16.0 2.0 N 7.4 -- 11.1 39 1022.7(-0.8/3h) >70 -- -- --
15:00 16.3 16.3 4.2 N 7.4 -- 13.0 45 1022.7(-0.7/3h) >70 -- -- --
14:00 16.3 16.3 4.9 N 7.4 -- 11.1 47 1023.2(-0.6/3h) >70 -- -- --
13:00 15.8 15.8 5.6 N 5.6 -- 11.1 51 1023.5(-0.4/3h) 17 -- -- --
12:00 15.8 15.8 4.2 N 5.6 -- 11.1 46 1023.7(-0.3/3h) >70 -- -- --
11:00 14.6 14.6 3.3 N 3.7 -- 9.3 47 1024(-0.1/3h) 16 -- -- --
10:00 13.7 13.7 4.3 E 3.7 -- 11.1 53 1024.2(0.1/3h) 45 -- -- --
09:00 12.4 12.3 3.1 ENE 5.6 -- 9.3 53 1024.5(0.4/3h) 15 -- -- --
08:00 10.8 10.8 4.5 E 3.7 -- 5.6 65 1024.5(1.0/3h) 35 -- -- --
07:00 7.9 7.9 2.7 E 3.7 -- 7.4 70 1024.7(1.2/3h) 40 -- -- --
06:00 5.9 5.9 0.9 NNO 1.9 -- 7.4 70 1024.9(1.3/3h) 40 -- -- --
05:00 5.0 5.0 -- NNO 1.9 -- 1.9 -- 1024.2(0.6/3h) 14 -- -- --
04:00 5.1 5.1 -0.7 NNO 1.9 -- 7.4 66 1023.7(0.4/3h) >70 -- -- --
03:00 5.3 5.3 -1.2 NNO 1.9 -- 5.6 63 1023.6(0.2/3h) >70 -- -- --
02:00 6.8 6.8 -1.2 N 3.7 -- 3.7 57 1023.2(0.3/3h) >70 -- -- --
01:00 7.0 7.0 -0.4 NNO 1.9 -- 5.6 59 1023.1(0.5/3h) >70 -- -- --
00:00 7.9 7.9 0.2 NE 3.7 -- 9.3 58 1023(0.7/3h) >70 -- -- --

1 Coordinated Universal Time. Actuellement il est 05:00 locale et 03:00 UTC.

2 Le vent souffle depuis la direction indiquée vers la direction oposée.

3 Les rafales max. sont disponible 40 min après l'heure du relevé.

4 Pour les stations d'altitude (plus de 600m) le géopotentiel du niveau le plus proche de la pression obligatoire est indiqué.

5 Les stations disposant d'un diffuseur peuvent indiquer "trace". Cela signifie que des précipitations ont touchés le sol mais que la quantité est inférieure à 0.1 mm.

Récapitulatif de la journée
Température [°C] Vent [km/h] Ensoleillement4 [h] Precipitations totale5 [mm] Pression [Hpa]
Min1 Max.2 Moy.3 Max. Min Max.
4.9 17.1 0 13.0 0 h 0 min 0 1022.5 1024.9

1 Température minimale relevée entre 18:00 UTC la veille et 18:00 UTC le jour donné.

2 Température maximale relevée entre 06:00 UTC le jour donné et 06:00 UTC le lendemain.

3 Vent moyen de la journée basé sur les relevés horaires.

4 Ensoleillement en heures relevé entre 06:00 UTC la veille et 06:00 UTC le jour donné.

5 Précipitations totales tombées entre 06:00 UTC la jour donné et 06:00 UTC le lendemain.

Graphiques horaires